createdAt,value
2023-01-29T00:02:17.990Z,34.70
2023-01-29T00:04:45.386Z,30.60
2023-01-29T00:07:12.753Z,29.67
2023-01-29T00:09:40.244Z,36.42
2023-01-29T00:12:10.511Z,28.92
2023-01-29T00:14:38.928Z,27.10
2023-01-29T00:17:06.185Z,23.55
2023-01-29T00:19:33.356Z,27.02
2023-01-29T00:22:00.892Z,22.80
2023-01-29T00:24:28.088Z,29.55
2023-01-29T00:26:55.119Z,28.85
2023-01-29T00:29:22.220Z,25.60
2023-01-29T00:31:49.470Z,27.98
2023-01-29T00:34:16.808Z,26.40
2023-01-29T00:36:45.743Z,27.42
2023-01-29T00:39:13.178Z,25.60
2023-01-29T00:41:59.036Z,25.25
2023-01-29T00:44:44.904Z,25.00
2023-01-29T00:47:30.941Z,26.42
2023-01-29T00:50:04.777Z,22.23
2023-01-29T00:52:31.951Z,28.05
2023-01-29T00:55:00.863Z,24.75
2023-01-29T00:57:29.904Z,27.65
2023-01-29T00:59:57.373Z,25.63
2023-01-29T01:02:45.186Z,23.50
2023-01-29T01:05:20.081Z,28.40
2023-01-29T01:07:49.988Z,23.60
2023-01-29T01:10:23.468Z,25.88
2023-01-29T01:12:54.662Z,27.10
2023-01-29T01:15:23.657Z,27.33
2023-01-29T01:17:59.537Z,26.05
2023-01-29T01:20:28.626Z,30.77
2023-01-29T01:22:56.874Z,32.55
2023-01-29T01:25:26.333Z,31.15
2023-01-29T01:27:57.891Z,29.38
2023-01-29T01:30:25.945Z,30.48
2023-01-29T01:32:53.430Z,34.88
2023-01-29T01:35:20.848Z,30.10
2023-01-29T01:37:48.050Z,27.17
2023-01-29T01:40:19.184Z,30.15
2023-01-29T01:42:54.665Z,30.05
2023-01-29T01:45:36.399Z,35.10
2023-01-29T01:48:06.274Z,27.30
2023-01-29T01:50:47.092Z,26.73
2023-01-29T01:53:19.091Z,27.83
2023-01-29T01:55:56.287Z,28.73
2023-01-29T01:58:38.747Z,31.80
2023-01-29T02:01:08.111Z,30.70
2023-01-29T02:04:12.526Z,31.73
2023-01-29T02:06:59.696Z,32.28
2023-01-29T02:09:36.065Z,32.50
2023-01-29T02:12:09.298Z,44.25
2023-01-29T02:14:39.815Z,37.08
2023-01-29T02:17:09.254Z,32.35
2023-01-29T02:20:12.122Z,31.92
2023-01-29T02:23:16.271Z,32.58
2023-01-29T02:26:14.019Z,32.17
2023-01-29T02:29:20.284Z,31.52
2023-01-29T02:32:14.694Z,31.35
2023-01-29T02:35:09.956Z,31.20
2023-01-29T02:37:43.927Z,37.70
2023-01-29T02:43:29.387Z,29.90
2023-01-29T02:45:59.446Z,35.78
2023-01-29T02:48:35.554Z,29.60
2023-01-29T02:51:06.991Z,34.85
2023-01-29T02:54:08.771Z,31.35
2023-01-29T02:56:45.852Z,33.28
2023-01-29T02:59:18.901Z,42.45
2023-01-29T03:01:52.124Z,32.23
2023-01-29T03:04:31.180Z,33.75
2023-01-29T03:07:36.281Z,32.72
2023-01-29T03:10:08.258Z,37.92
2023-01-29T03:12:39.618Z,32.22
2023-01-29T03:15:16.667Z,35.90
2023-01-29T03:17:52.737Z,37.22
2023-01-29T03:20:26.733Z,38.00
2023-01-29T03:25:45.704Z,36.20
2023-01-29T03:28:35.367Z,45.70
2023-01-29T03:31:25.497Z,40.65
2023-01-29T03:34:01.090Z,46.78
2023-01-29T03:36:46.155Z,47.05
2023-01-29T03:39:15.668Z,49.92
2023-01-29T03:41:47.856Z,37.38
2023-01-29T03:44:33.949Z,40.17
2023-01-29T03:47:26.482Z,42.00
2023-01-29T03:50:18.203Z,40.25
2023-01-29T03:53:00.468Z,34.65
2023-01-29T03:55:40.666Z,36.95
2023-01-29T03:58:23.365Z,33.83
2023-01-29T04:01:03.103Z,30.65
2023-01-29T04:03:42.324Z,34.42
2023-01-29T04:06:19.196Z,35.42
2023-01-29T04:08:58.270Z,29.45
2023-01-29T04:11:27.501Z,34.75
2023-01-29T04:13:55.995Z,32.97
2023-01-29T04:16:36.255Z,36.47
2023-01-29T04:19:05.331Z,43.20
2023-01-29T04:21:33.163Z,49.13
2023-01-29T04:24:00.636Z,47.83
2023-01-29T04:26:27.828Z,46.63
2023-01-29T04:29:22.891Z,49.70
2023-01-29T04:32:08.223Z,49.13
2023-01-29T04:34:47.294Z,46.15
2023-01-29T04:37:40.377Z,57.13
2023-01-29T04:40:34.143Z,37.80
2023-01-29T04:43:23.267Z,39.60
2023-01-29T04:46:05.509Z,37.72
2023-01-29T04:49:10.462Z,39.33
2023-01-29T04:54:16.588Z,41.70
2023-01-29T04:57:07.568Z,40.13
2023-01-29T04:59:42.716Z,36.92
2023-01-29T05:02:12.290Z,35.00
2023-01-29T05:04:41.902Z,40.80
2023-01-29T05:07:12.708Z,54.63
2023-01-29T05:09:42.800Z,50.90
2023-01-29T05:12:13.191Z,43.00
2023-01-29T05:14:43.353Z,35.05
2023-01-29T05:17:19.012Z,32.63
2023-01-29T05:19:46.922Z,36.28
2023-01-29T05:22:17.744Z,30.50
2023-01-29T05:24:45.173Z,35.92
2023-01-29T05:27:39.207Z,35.65
2023-01-29T05:30:07.093Z,35.95
2023-01-29T05:32:34.363Z,33.65
2023-01-29T05:35:01.813Z,36.90
2023-01-29T05:37:29.063Z,35.10
2023-01-29T05:39:56.508Z,41.22
2023-01-29T05:42:24.256Z,35.83
2023-01-29T05:44:51.552Z,37.00
2023-01-29T05:47:21.979Z,40.00
2023-01-29T05:49:49.300Z,41.70
2023-01-29T05:52:16.662Z,40.13
2023-01-29T05:54:44.027Z,43.25
2023-01-29T05:57:11.472Z,45.10
2023-01-29T05:59:38.775Z,43.28
2023-01-29T06:02:06.123Z,40.08
2023-01-29T06:04:33.304Z,41.60
2023-01-29T06:07:03.691Z,41.95
2023-01-29T06:09:31.197Z,43.78
2023-01-29T06:11:58.499Z,46.33
2023-01-29T06:14:25.898Z,43.45
2023-01-29T06:16:52.879Z,46.15
2023-01-29T06:19:20.995Z,45.65
2023-01-29T06:21:48.205Z,45.92
2023-01-29T06:24:15.365Z,45.35
2023-01-29T06:26:42.871Z,45.25
2023-01-29T06:29:10.551Z,56.33
2023-01-29T06:31:39.288Z,48.00
2023-01-29T06:34:09.240Z,45.85
2023-01-29T06:36:36.642Z,44.28
2023-01-29T06:39:04.822Z,45.65
2023-01-29T06:41:32.122Z,47.75
2023-01-29T06:43:59.385Z,43.65
2023-01-29T06:46:26.854Z,47.25
2023-01-29T06:48:54.102Z,48.10
2023-01-29T06:51:23.245Z,47.10
2023-01-29T06:53:50.510Z,48.00
2023-01-29T06:56:17.664Z,48.80
2023-01-29T06:58:44.894Z,41.65
2023-01-29T07:01:25.503Z,49.15
2023-01-29T07:04:00.916Z,47.85
2023-01-29T07:06:31.690Z,43.38
2023-01-29T07:08:59.157Z,42.70
2023-01-29T07:11:27.057Z,47.50
2023-01-29T07:13:54.410Z,42.92
2023-01-29T07:16:21.863Z,47.25
2023-01-29T07:18:49.189Z,44.80
2023-01-29T07:21:16.335Z,53.03
2023-01-29T07:23:43.968Z,42.60
2023-01-29T07:26:11.791Z,41.78
2023-01-29T07:28:39.697Z,48.38
2023-01-29T07:31:07.902Z,47.90
2023-01-29T07:33:35.390Z,54.55
2023-01-29T07:36:02.937Z,41.70
2023-01-29T07:38:30.193Z,47.60
2023-01-29T07:40:57.862Z,112.85
2023-01-29T07:43:25.305Z,55.58
2023-01-29T07:45:52.967Z,46.40
2023-01-29T07:48:20.397Z,39.28
2023-01-29T07:50:55.687Z,36.80
2023-01-29T07:53:23.131Z,41.20
2023-01-29T07:55:50.623Z,40.38
2023-01-29T07:58:18.048Z,43.15
2023-01-29T08:00:45.598Z,48.78
2023-01-29T08:03:18.603Z,44.17
2023-01-29T08:05:46.609Z,40.53
2023-01-29T08:08:14.779Z,41.08
2023-01-29T08:10:42.630Z,41.72
2023-01-29T08:13:10.206Z,43.80
2023-01-29T08:18:24.671Z,41.47
2023-01-29T08:20:52.852Z,38.78
2023-01-29T08:23:21.272Z,39.85
2023-01-29T08:25:48.599Z,46.15
2023-01-29T08:28:16.981Z,44.28
2023-01-29T08:30:44.953Z,49.60
2023-01-29T08:33:12.405Z,45.30
2023-01-29T08:35:41.439Z,48.42
2023-01-29T08:38:10.874Z,45.00
2023-01-29T08:40:38.090Z,49.00
2023-01-29T08:43:09.182Z,48.47
2023-01-29T08:45:39.401Z,47.28
2023-01-29T08:48:07.448Z,46.20
2023-01-29T08:50:35.432Z,46.40
2023-01-29T08:53:04.930Z,49.75
2023-01-29T08:55:32.277Z,46.63
2023-01-29T08:57:59.513Z,53.60
2023-01-29T09:00:27.751Z,50.60
2023-01-29T09:02:55.019Z,50.42
2023-01-29T09:05:22.176Z,47.28
2023-01-29T09:07:49.628Z,58.88
2023-01-29T09:10:17.082Z,50.58
2023-01-29T09:12:44.247Z,48.78
2023-01-29T09:15:12.047Z,49.75
2023-01-29T09:17:39.282Z,48.25
2023-01-29T09:20:07.355Z,46.35
2023-01-29T09:22:34.609Z,49.80
2023-01-29T09:25:01.863Z,49.08
2023-01-29T09:27:29.188Z,50.42
2023-01-29T09:29:56.444Z,48.45
2023-01-29T09:32:51.997Z,49.78
2023-01-29T09:35:10.827Z,47.13
2023-01-29T09:37:38.608Z,46.50
2023-01-29T09:40:06.495Z,47.03
2023-01-29T09:42:50.920Z,50.60
2023-01-29T09:47:52.392Z,47.97
2023-01-29T09:50:29.308Z,49.65
2023-01-29T09:53:05.080Z,51.83
2023-01-29T09:55:46.116Z,53.60
2023-01-29T09:58:34.090Z,49.40
2023-01-29T10:01:06.973Z,50.60
2023-01-29T10:03:40.304Z,54.00
2023-01-29T10:06:34.929Z,45.65
2023-01-29T10:09:39.349Z,49.10
2023-01-29T10:12:34.376Z,51.90
2023-01-29T10:15:26.517Z,47.47
2023-01-29T10:18:36.366Z,46.70
2023-01-29T10:21:24.799Z,57.35
2023-01-29T10:24:07.491Z,46.95
2023-01-29T10:26:37.919Z,47.92
2023-01-29T10:29:08.042Z,47.92
2023-01-29T10:31:39.906Z,45.35
2023-01-29T10:34:15.047Z,41.90
2023-01-29T10:36:47.555Z,42.42
2023-01-29T10:39:23.017Z,50.20
2023-01-29T10:42:09.951Z,50.63
2023-01-29T10:45:00.428Z,42.80
2023-01-29T10:47:40.643Z,45.20
2023-01-29T10:50:38.381Z,84.93
2023-01-29T10:53:17.903Z,41.22
2023-01-29T10:55:52.566Z,47.05
2023-01-29T10:58:49.949Z,42.67
2023-01-29T11:01:17.627Z,44.03
2023-01-29T11:03:44.813Z,46.60
2023-01-29T11:06:26.024Z,41.25
2023-01-29T11:09:19.265Z,42.17
2023-01-29T11:11:56.399Z,45.80
2023-01-29T11:14:25.513Z,40.88
2023-01-29T11:16:52.942Z,45.00
2023-01-29T11:19:41.161Z,39.63
2023-01-29T11:22:29.366Z,41.80
2023-01-29T11:25:18.475Z,39.65
2023-01-29T11:27:52.668Z,42.65
2023-01-29T11:32:56.523Z,42.72
2023-01-29T11:35:25.673Z,41.38
2023-01-29T11:37:53.227Z,41.25
2023-01-29T11:40:20.869Z,41.00
2023-01-29T11:42:49.690Z,46.35
2023-01-29T11:45:32.549Z,44.17
2023-01-29T11:48:00.723Z,46.15
2023-01-29T11:50:30.065Z,43.58
2023-01-29T11:53:01.902Z,37.30
2023-01-29T11:55:49.919Z,46.03
2023-01-29T11:58:40.128Z,38.38
2023-01-29T12:01:07.154Z,43.35
2023-01-29T12:03:40.125Z,37.58
2023-01-29T12:06:20.904Z,39.42
2023-01-29T12:09:00.985Z,37.83
2023-01-29T12:11:31.089Z,50.22
2023-01-29T12:14:01.101Z,41.60
2023-01-29T12:16:44.604Z,62.17
2023-01-29T12:19:29.640Z,35.80
2023-01-29T12:22:07.195Z,36.10
2023-01-29T12:24:49.625Z,44.15
2023-01-29T12:28:14.162Z,49.47
2023-01-29T12:31:04.313Z,39.55
2023-01-29T12:33:56.209Z,38.97
2023-01-29T12:36:44.143Z,37.53
2023-01-29T12:39:17.189Z,39.25
2023-01-29T12:42:09.953Z,36.03
2023-01-29T12:44:59.014Z,31.80
2023-01-29T12:47:28.515Z,38.13
2023-01-29T12:50:00.801Z,40.70
2023-01-29T12:52:48.246Z,39.22
2023-01-29T12:55:24.896Z,40.58
2023-01-29T12:58:02.241Z,36.50
2023-01-29T13:00:34.270Z,38.75
2023-01-29T13:03:25.523Z,37.58
2023-01-29T13:06:02.928Z,34.15
2023-01-29T13:08:54.141Z,35.85
2023-01-29T13:11:24.271Z,36.90
2023-01-29T13:13:54.734Z,36.90
2023-01-29T13:16:36.332Z,31.50
2023-01-29T13:19:06.939Z,34.28
2023-01-29T13:21:41.230Z,38.67
2023-01-29T13:24:21.333Z,38.70
2023-01-29T13:26:49.545Z,36.20
2023-01-29T13:29:29.154Z,34.30
2023-01-29T13:31:58.913Z,40.88
2023-01-29T13:34:28.653Z,33.17
2023-01-29T13:36:59.665Z,34.85
2023-01-29T13:39:33.042Z,31.83
2023-01-29T13:42:03.025Z,38.72
2023-01-29T13:44:39.329Z,32.50
2023-01-29T13:47:10.014Z,28.92
2023-01-29T13:49:47.407Z,33.45
2023-01-29T13:52:41.016Z,30.35
2023-01-29T13:55:36.194Z,30.02
2023-01-29T13:58:08.021Z,30.90
2023-01-29T14:00:35.229Z,33.03
2023-01-29T14:03:04.823Z,29.27
2023-01-29T14:05:31.984Z,36.28
2023-01-29T14:08:05.872Z,29.75
2023-01-29T14:10:34.658Z,27.48
2023-01-29T14:13:04.539Z,29.50
2023-01-29T14:15:34.375Z,30.10
2023-01-29T14:18:08.520Z,29.80
2023-01-29T14:20:47.908Z,27.15
2023-01-29T14:23:41.148Z,30.40
2023-01-29T14:26:27.116Z,30.85
2023-01-29T14:28:57.732Z,32.30
2023-01-29T14:31:36.869Z,41.40
2023-01-29T14:34:07.898Z,32.72
2023-01-29T14:36:42.953Z,35.58
2023-01-29T14:39:29.140Z,47.28
2023-01-29T14:41:57.556Z,33.00
2023-01-29T14:45:04.225Z,26.48
2023-01-29T14:47:34.249Z,39.30
2023-01-29T14:50:04.292Z,45.60
2023-01-29T14:52:40.461Z,89.60
2023-01-29T14:55:16.008Z,62.55
2023-01-29T14:57:43.393Z,33.70
2023-01-29T15:00:28.928Z,33.08
2023-01-29T15:03:02.309Z,58.95
2023-01-29T15:05:38.123Z,29.42
2023-01-29T15:08:30.255Z,55.92
2023-01-29T15:11:19.611Z,59.58
2023-01-29T15:13:57.813Z,31.00
2023-01-29T15:16:51.401Z,39.38
2023-01-29T15:19:37.923Z,44.63
2023-01-29T15:22:19.869Z,35.28
2023-01-29T15:25:01.799Z,35.00
2023-01-29T15:27:29.197Z,31.85
2023-01-29T15:30:06.524Z,36.70
2023-01-29T15:32:37.238Z,34.28
2023-01-29T15:35:34.558Z,32.35
2023-01-29T15:38:26.921Z,31.50
2023-01-29T15:40:53.971Z,35.60
2023-01-29T15:43:27.332Z,32.70
2023-01-29T15:45:59.862Z,31.88
2023-01-29T15:48:41.903Z,33.47
2023-01-29T15:51:17.040Z,36.60
2023-01-29T15:53:49.549Z,39.97
2023-01-29T15:56:20.583Z,38.95
2023-01-29T15:58:50.264Z,48.47
2023-01-29T16:01:17.939Z,38.33
2023-01-29T16:03:46.008Z,36.00
2023-01-29T16:06:13.272Z,34.00
2023-01-29T16:08:41.681Z,33.05
2023-01-29T16:11:09.633Z,46.50
2023-01-29T16:13:41.243Z,38.25
2023-01-29T16:16:21.998Z,40.13
2023-01-29T16:19:00.140Z,35.67
2023-01-29T16:21:36.854Z,40.47
2023-01-29T16:24:11.940Z,42.15
2023-01-29T16:26:45.294Z,43.30
2023-01-29T16:29:24.668Z,33.43
2023-01-29T16:32:00.825Z,34.25
2023-01-29T16:34:34.028Z,83.07
2023-01-29T16:37:04.690Z,45.70
2023-01-29T16:39:38.609Z,36.05
2023-01-29T16:42:27.045Z,35.10
2023-01-29T16:45:02.615Z,32.78
2023-01-29T16:47:31.438Z,33.25
2023-01-29T16:50:19.893Z,31.05
2023-01-29T16:53:01.239Z,37.42
2023-01-29T16:55:36.330Z,30.70
2023-01-29T16:58:16.294Z,35.60
2023-01-29T17:00:59.764Z,35.85
2023-01-29T17:03:30.336Z,35.73
2023-01-29T17:05:57.499Z,138.32
2023-01-29T17:08:31.563Z,98.20
2023-01-29T17:10:59.441Z,61.70
2023-01-29T17:13:45.479Z,50.97
2023-01-29T17:16:33.336Z,35.72
2023-01-29T17:19:01.280Z,29.20
2023-01-29T17:21:30.634Z,31.33
2023-01-29T17:23:57.738Z,33.25
2023-01-29T17:26:25.033Z,25.83
2023-01-29T17:28:54.682Z,26.73
2023-01-29T17:31:23.088Z,29.35
2023-01-29T17:33:50.299Z,22.48
2023-01-29T17:36:17.903Z,25.20
2023-01-29T17:38:45.890Z,27.10
2023-01-29T17:41:28.602Z,25.13
2023-01-29T17:43:56.321Z,23.85
2023-01-29T17:46:23.439Z,23.58
2023-01-29T17:48:50.771Z,27.63
2023-01-29T17:51:24.665Z,26.05
2023-01-29T17:56:23.938Z,23.08
2023-01-29T17:58:51.044Z,26.33
2023-01-29T18:01:18.297Z,25.27
2023-01-29T18:03:45.447Z,22.75
2023-01-29T18:06:28.204Z,26.70
2023-01-29T18:08:56.556Z,21.98
2023-01-29T18:11:25.250Z,22.10
2023-01-29T18:13:52.305Z,24.83
2023-01-29T18:16:24.172Z,23.90
2023-01-29T18:18:52.523Z,29.95
2023-01-29T18:21:19.804Z,24.50
2023-01-29T18:23:46.913Z,31.33
2023-01-29T18:26:16.665Z,23.70
2023-01-29T18:28:45.436Z,21.08
2023-01-29T18:31:14.128Z,28.63
2023-01-29T18:33:41.450Z,25.38
2023-01-29T18:36:08.914Z,24.13
2023-01-29T18:38:36.054Z,27.45
2023-01-29T18:41:10.697Z,21.35
2023-01-29T18:43:39.456Z,23.58
2023-01-29T18:46:09.307Z,23.60
2023-01-29T18:48:36.633Z,22.17
2023-01-29T18:51:03.758Z,23.48
2023-01-29T18:53:30.808Z,20.42
2023-01-29T18:56:05.641Z,26.10
2023-01-29T18:58:37.067Z,23.60
2023-01-29T19:01:09.664Z,21.63
2023-01-29T19:03:40.744Z,20.10
2023-01-29T19:06:10.058Z,22.40
2023-01-29T19:08:37.289Z,18.27
2023-01-29T19:11:08.354Z,19.08
2023-01-29T19:13:37.174Z,21.17
2023-01-29T19:16:10.776Z,21.95
2023-01-29T19:18:38.910Z,21.88
2023-01-29T19:21:11.851Z,21.15
2023-01-29T19:23:39.768Z,28.45
2023-01-29T19:26:07.398Z,23.38
2023-01-29T19:28:34.489Z,20.30
2023-01-29T19:31:01.877Z,24.40
2023-01-29T19:33:29.623Z,22.35
2023-01-29T19:35:57.740Z,24.98
2023-01-29T19:38:25.094Z,26.83
2023-01-29T19:40:52.943Z,25.48
2023-01-29T19:43:20.068Z,27.23
2023-01-29T19:45:53.796Z,24.35
2023-01-29T19:48:21.915Z,28.58
2023-01-29T19:50:56.090Z,28.98
2023-01-29T19:53:23.614Z,26.98
2023-01-29T19:56:02.118Z,25.33
2023-01-29T19:58:30.235Z,31.42
2023-01-29T20:01:02.871Z,30.42
2023-01-29T20:03:30.533Z,28.00
2023-01-29T20:06:03.986Z,30.88
2023-01-29T20:08:31.912Z,26.23
2023-01-29T20:10:59.040Z,31.33
2023-01-29T20:13:26.545Z,31.58
2023-01-29T20:15:54.410Z,39.65
2023-01-29T20:18:21.771Z,38.13
2023-01-29T20:20:50.791Z,31.13
2023-01-29T20:23:35.273Z,41.17
2023-01-29T20:26:04.228Z,29.42
2023-01-29T20:28:31.280Z,29.60
2023-01-29T20:30:59.177Z,32.03
2023-01-29T20:33:27.267Z,30.00
2023-01-29T20:35:59.504Z,26.90
2023-01-29T20:38:30.600Z,29.95
2023-01-29T20:41:10.570Z,34.03
2023-01-29T20:43:38.723Z,32.83
2023-01-29T20:46:06.228Z,29.27
2023-01-29T20:48:33.930Z,34.22
2023-01-29T20:51:09.510Z,30.05
2023-01-29T20:53:37.410Z,35.47
2023-01-29T20:56:07.510Z,44.30
2023-01-29T20:58:34.847Z,41.33
2023-01-29T21:01:02.034Z,45.25
2023-01-29T21:03:29.165Z,38.13
2023-01-29T21:06:02.515Z,37.33
2023-01-29T21:08:29.557Z,30.92
2023-01-29T21:10:56.755Z,31.80
2023-01-29T21:13:23.844Z,50.08
2023-01-29T21:15:51.261Z,35.17
2023-01-29T21:18:18.434Z,31.95
2023-01-29T21:20:48.825Z,34.28
2023-01-29T21:23:16.222Z,30.15
2023-01-29T21:25:43.479Z,32.85
2023-01-29T21:28:10.967Z,32.30
2023-01-29T21:30:38.317Z,35.08
2023-01-29T21:33:06.155Z,29.85
2023-01-29T21:35:33.639Z,30.40
2023-01-29T21:38:01.478Z,28.25
2023-01-29T21:40:30.622Z,27.95
2023-01-29T21:43:15.581Z,30.05
2023-01-29T21:45:43.422Z,29.50
2023-01-29T21:48:11.811Z,25.77
2023-01-29T21:50:39.220Z,26.55
2023-01-29T21:53:06.386Z,29.00
2023-01-29T21:55:33.523Z,29.08
2023-01-29T21:58:00.928Z,29.13
2023-01-29T22:00:28.390Z,30.42
2023-01-29T22:02:55.593Z,32.70
2023-01-29T22:05:22.715Z,28.42
2023-01-29T22:07:50.108Z,30.42
2023-01-29T22:10:18.753Z,28.52
2023-01-29T22:12:46.879Z,23.35
2023-01-29T22:15:16.227Z,32.88
2023-01-29T22:17:43.981Z,29.30
2023-01-29T22:20:14.250Z,30.88
2023-01-29T22:22:41.707Z,29.17
2023-01-29T22:25:09.646Z,29.67
2023-01-29T22:27:37.104Z,26.23
2023-01-29T22:30:05.417Z,29.10
2023-01-29T22:32:33.367Z,28.45
2023-01-29T22:35:00.463Z,30.73
2023-01-29T22:37:27.662Z,29.08
2023-01-29T22:39:54.664Z,28.38
2023-01-29T22:42:21.714Z,27.85
2023-01-29T22:44:48.840Z,32.55
2023-01-29T22:47:16.520Z,31.88
2023-01-29T22:49:45.732Z,29.75
2023-01-29T22:52:13.069Z,27.52
2023-01-29T22:54:41.695Z,28.45
2023-01-29T22:57:13.089Z,30.70
2023-01-29T22:59:40.789Z,34.78
2023-01-29T23:02:08.885Z,30.30
2023-01-29T23:04:36.120Z,31.77
2023-01-29T23:07:03.854Z,31.02
2023-01-29T23:09:30.935Z,36.22
2023-01-29T23:11:58.181Z,33.53
2023-01-29T23:14:25.212Z,31.42
2023-01-29T23:16:52.343Z,31.27
2023-01-29T23:19:19.529Z,24.67
2023-01-29T23:21:46.623Z,30.95
2023-01-29T23:24:13.702Z,32.38
2023-01-29T23:26:59.247Z,29.00
2023-01-29T23:29:26.384Z,35.78
2023-01-29T23:31:53.400Z,27.88
2023-01-29T23:34:20.675Z,28.05
2023-01-29T23:36:47.996Z,33.47
2023-01-29T23:39:15.143Z,28.70
2023-01-29T23:41:43.966Z,28.30
2023-01-29T23:44:10.997Z,28.25
2023-01-29T23:46:38.178Z,27.85
2023-01-29T23:49:05.324Z,26.42
2023-01-29T23:51:32.398Z,26.95
2023-01-29T23:53:59.540Z,28.58
2023-01-29T23:56:26.743Z,27.90
2023-01-29T23:58:57.659Z,25.60
